Terminal Aerodrome Forecast
Issued by NWS

Home | Current Version | Previous Version | Text Only | Print | Product List | Glossary On
Versions: 1 2 3 4 5 6 7 8 9 10 11 12 13 14 15 16 17 18 19 20 21 22
000
FTUS44 KLZK 171300 AAA
TAFBPK
TAF AMD
KBPK 171355Z 1714/1812 14005KT 5SM BR VCTS BKN015CB
      TEMPO 1716/1719 4SM -TSRA BR BKN005 BKN025CB
     FM171900 18007KT P6SM VCTS OVC050CB
     FM180000 17005KT P6SM VCTS BKN050CB
     FM180600 VRB03KT 4SM BR OVC010=

USA.gov is the U.S. government's official web portal to all federal, state and local government web resources and services.